Time;durP1;ratioP1;P1;durP2;ratioP2;P2;SDS_P1;SDS_P2;PMS_P1;PMS_P2;Temp;Humidity;BMP_temperature;BMP_pressure;BME280_temperature;BME280_humidity;BME280_pressure;Samples;Min_cycle;Max_cycle;Signal;HPM_P1;HPM_P2
2023/05/30 00:01:28;;;;;;;;;;;;;;;;;;4967693;28;20024;-60
2023/05/30 00:04:00;;;;;;;;;;;;;;;;;;4969694;28;19931;-60
2023/05/30 00:06:28;;;;;;;;;;;;;;;;;;4950067;28;19918;-60
2023/05/30 00:08:53;;;;;;;;;;;;;;;;;;4966494;28;20048;-60
2023/05/30 00:11:19;;;;;;;;;;;;;;;;;;4966006;28;20388;-60
2023/05/30 00:13:44;;;;;;;;;;;;;;;;;;4971599;28;19932;-60
2023/05/30 00:16:13;;;;;;;;;;;;;;;;;;4966408;28;20392;-60
2023/05/30 00:18:39;;;;;;;;;;;;;;;;;;4967800;28;19922;-60
2023/05/30 00:21:07;;;;;;;;;;;;;;;;;;4970391;28;19939;-60
2023/05/30 00:23:35;;;;;;;;;;;;;;;;;;4957300;28;19932;-60
2023/05/30 00:26:01;;;;;;;;;;;;;;;;;;4966104;28;19960;-60
2023/05/30 00:28:26;;;;;;;;;;;;;;;;;;4951963;28;19957;-60
2023/05/30 00:30:55;;;;;;;;;;;;;;;;;;4965409;28;19922;-60
2023/05/30 00:33:24;;;;;;;;;;;;;;;;;;4952143;28;19932;-60
2023/05/30 00:35:52;;;;;;;;;;;;;;;;;;4951027;28;20413;-60
2023/05/30 00:38:18;;;;;;;;;;;;;;;;;;4968959;28;21676;-60
2023/05/30 00:40:45;;;;;;;;;;;;;;;;;;4960936;28;19930;-60
2023/05/30 00:43:11;;;;;;;;;;;;;;;;;;4971830;28;20180;-60
2023/05/30 00:45:36;;;;;;;;;;;;;;;;;;4982746;28;20585;-60
2023/05/30 00:48:01;;;;;;;;;;;;;;;;;;4981496;28;21063;-60
2023/05/30 00:50:28;;;;;;;;;;;;;;;;;;4982223;28;19925;-62
2023/05/30 00:52:54;;;;;;;;;;;;;;;;;;4981826;28;20370;-61
2023/05/30 00:55:22;;;;;;;;;;;;;;;;;;4957044;28;19929;-60
2023/05/30 00:57:47;;;;;;;;;;;;;;;;;;4965611;28;20285;-60
2023/05/30 01:00:13;;;;;;;;;;;;;;;;;;4967378;28;21542;-60
2023/05/30 01:02:41;;;;;;;;;;;;;;;;;;4965309;28;20441;-60
2023/05/30 01:05:08;;;;;;;;;;;;;;;;;;4968278;28;19982;-61
2023/05/30 01:07:41;;;;;;;;;;;;;;;;;;4967553;28;20721;-61
2023/05/30 01:10:06;;;;;;;;;;;;;;;;;;4982929;28;19918;-60
2023/05/30 01:12:34;;;;;;;;;;;;;;;;;;4967806;28;19984;-60
2023/05/30 01:14:59;;;;;;;;;;;;;;;;;;4976267;28;19922;-60
2023/05/30 01:17:30;;;;;;;;;;;;;;;;;;4984426;28;19917;-60
2023/05/30 01:19:56;;;;;;;;;;;;;;;;;;4967262;28;20052;-60
2023/05/30 01:22:21;;;;;;;;;;;;;;;;;;4981171;28;19918;-60
2023/05/30 01:24:47;;;;;;;;;;;;;;;;;;4969388;28;19968;-60
2023/05/30 01:27:13;;;;;;;;;;;;;;;;;;4967736;28;20444;-60
2023/05/30 01:29:43;;;;;;;;;;;;;;;;;;4966139;28;20504;-60
2023/05/30 01:32:08;;;;;;;;;;;;;;;;;;4976367;28;20008;-59
2023/05/30 01:34:33;;;;;;;;;;;;;;;;;;4968107;28;19922;-60
2023/05/30 01:37:01;;;;;;;;;;;;;;;;;;4968425;28;19925;-60
2023/05/30 01:39:27;;;;;;;;;;;;;;;;;;4970185;28;19922;-60
2023/05/30 01:41:52;;;;;;;;;;;;;;;;;;4982424;28;19932;-60
2023/05/30 01:44:17;;;;;;;;;;;;;;;;;;4968557;28;20782;-60
2023/05/30 01:46:45;;;;;;;;;;;;;;;;;;4969858;28;20293;-60
2023/05/30 01:49:10;;;;;;;;;;;;;;;;;;4981302;28;19921;-60
2023/05/30 01:51:36;;;;;;;;;;;;;;;;;;4967001;28;20423;-60
2023/05/30 01:54:01;;;;;;;;;;;;;;;;;;4957887;28;20001;-60
2023/05/30 01:56:27;;;;;;;;;;;;;;;;;;4967533;28;19926;-60
2023/05/30 01:58:53;;;;;;;;;;;;;;;;;;4969737;28;20483;-60
2023/05/30 02:01:21;;;;;;;;;;;;;;;;;;4975794;28;19944;-61
2023/05/30 02:03:47;;;;;;;;;;;;;;;;;;4980610;28;20251;-60
2023/05/30 02:06:12;;;;;;;;;;;;;;;;;;4968900;28;19928;-61
2023/05/30 02:08:38;;;;;;;;;;;;;;;;;;4984800;28;20463;-60
2023/05/30 02:11:03;;;;;;;;;;;;;;;;;;4971110;28;20377;-60
2023/05/30 02:13:32;;;;;;;;;;;;;;;;;;4984507;28;19921;-60
2023/05/30 02:16:06;;;;;;;;;;;;;;;;;;4971364;28;19918;-60
2023/05/30 02:18:32;;;;;;;;;;;;;;;;;;4970039;28;22076;-61
2023/05/30 02:20:57;;;;;;;;;;;;;;;;;;4971053;28;19918;-60
2023/05/30 02:23:23;;;;;;;;;;;;;;;;;;4968205;28;19932;-60
2023/05/30 02:25:48;;;;;;;;;;;;;;;;;;4970874;28;19965;-60
2023/05/30 02:28:14;;;;;;;;;;;;;;;;;;4969563;28;19922;-60
2023/05/30 02:30:39;;;;;;;;;;;;;;;;;;4969583;28;20058;-61
2023/05/30 02:33:05;;;;;;;;;;;;;;;;;;4970844;28;19922;-61
2023/05/30 02:35:32;;;;;;;;;;;;;;;;;;4970345;28;19923;-60
2023/05/30 02:37:58;;;;;;;;;;;;;;;;;;4969501;28;20356;-60
2023/05/30 02:40:26;;;;;;;;;;;;;;;;;;4984276;28;19930;-61
2023/05/30 02:42:51;;;;;;;;;;;;;;;;;;4985924;28;20413;-61
2023/05/30 02:45:16;;;;;;;;;;;;;;;;;;4971322;28;19922;-61
2023/05/30 02:47:44;;;;;;;;;;;;;;;;;;4971365;28;20032;-60
2023/05/30 02:50:10;;;;;;;;;;;;;;;;;;4972202;28;19925;-60
2023/05/30 02:52:38;;;;;;;;;;;;;;;;;;4984156;28;19936;-60
2023/05/30 02:55:03;;;;;;;;;;;;;;;;;;4970336;28;19922;-60
2023/05/30 02:57:28;;;;;;;;;;;;;;;;;;4976458;28;20441;-60
2023/05/30 02:59:54;;;;;;;;;;;;;;;;;;4961479;28;19922;-59
2023/05/30 03:02:19;;;;;;;;;;;;;;;;;;4969810;28;19925;-60
2023/05/30 03:04:45;;;;;;;;;;;;;;;;;;4984980;28;19994;-59
2023/05/30 03:07:17;;;;;;;;;;;;;;;;;;4986201;28;20515;-59
2023/05/30 03:09:45;;;;;;;;;;;;;;;;;;4984364;28;20751;-59
2023/05/30 03:12:13;;;;;;;;;;;;;;;;;;4968175;28;20035;-60
2023/05/30 03:14:38;;;;;;;;;;;;;;;;;;4985204;28;20056;-60
2023/05/30 03:17:03;;;;;;;;;;;;;;;;;;4986302;28;20400;-59
2023/05/30 03:19:29;;;;;;;;;;;;;;;;;;4977532;28;20101;-60
2023/05/30 03:21:54;;;;;;;;;;;;;;;;;;4973387;28;19957;-59
2023/05/30 03:24:23;;;;;;;;;;;;;;;;;;4976215;28;20340;-60
2023/05/30 03:26:48;;;;;;;;;;;;;;;;;;4969629;28;19929;-59
2023/05/30 03:29:16;;;;;;;;;;;;;;;;;;4986063;28;19961;-59
2023/05/30 03:31:46;;;;;;;;;;;;;;;;;;4984433;28;20581;-59
2023/05/30 03:34:15;;;;;;;;;;;;;;;;;;4983284;28;20289;-59
2023/05/30 03:36:43;;;;;;;;;;;;;;;;;;4984348;28;20346;-61
2023/05/30 03:39:11;;;;;;;;;;;;;;;;;;4984322;28;19944;-61
2023/05/30 03:41:36;;;;;;;;;;;;;;;;;;4985192;28;20353;-59
2023/05/30 03:46:49;;;;;;;;;;;;;;;;;;4970451;28;19917;-60
2023/05/30 03:49:14;;;;;;;;;;;;;;;;;;4968720;28;20934;-60
2023/05/30 03:51:42;;;;;;;;;;;;;;;;;;4985617;28;20337;-60
2023/05/30 03:54:07;;;;;;;;;;;;;;;;;;4970868;28;21477;-60
2023/05/30 03:56:33;;;;;;;;;;;;;;;;;;4981472;28;19918;-61
2023/05/30 03:59:01;;;;;;;;;;;;;;;;;;4970433;28;19918;-60
2023/05/30 04:04:45;;;;;;;;;;;;;;;;;;4969585;28;19929;-61
2023/05/30 04:07:15;;;;;;;;;;;;;;;;;;4984804;28;19917;-61
2023/05/30 04:09:45;;;;;;;;;;;;;;;;;;4978736;28;20370;-61
2023/05/30 04:12:13;;;;;;;;;;;;;;;;;;4985727;28;19998;-61
2023/05/30 04:14:38;;;;;;;;;;;;;;;;;;4968727;28;20052;-61
2023/05/30 04:17:04;;;;;;;;;;;;;;;;;;4985800;28;20303;-61
2023/05/30 04:19:29;;;;;;;;;;;;;;;;;;4968447;28;19921;-61
2023/05/30 04:21:57;;;;;;;;;;;;;;;;;;4982247;28;20028;-61
2023/05/30 04:24:22;;;;;;;;;;;;;;;;;;4983406;28;19929;-61
2023/05/30 04:26:50;;;;;;;;;;;;;;;;;;4967780;28;19929;-61
2023/05/30 04:29:22;;;;;;;;;;;;;;;;;;4959380;28;20095;-61
2023/05/30 04:31:47;;;;;;;;;;;;;;;;;;4984542;28;19918;-60
2023/05/30 04:34:15;;;;;;;;;;;;;;;;;;4969454;28;19966;-60
2023/05/30 04:36:40;;;;;;;;;;;;;;;;;;4983160;28;20274;-60
2023/05/30 04:39:05;;;;;;;;;;;;;;;;;;4982339;28;19929;-59
2023/05/30 04:41:32;;;;;;;;;;;;;;;;;;4969764;28;19929;-61
2023/05/30 04:44:00;;;;;;;;;;;;;;;;;;4965813;28;19921;-60
2023/05/30 04:46:27;;;;;;;;;;;;;;;;;;4967322;28;19922;-62
2023/05/30 04:48:53;;;;;;;;;;;;;;;;;;4967833;28;19922;-60
2023/05/30 04:51:18;;;;;;;;;;;;;;;;;;4951393;28;19917;-60
2023/05/30 04:53:46;;;;;;;;;;;;;;;;;;4964605;28;20036;-59
2023/05/30 04:56:11;;;;;;;;;;;;;;;;;;4965381;28;19940;-60
2023/05/30 04:58:39;;;;;;;;;;;;;;;;;;4951382;28;19968;-60
2023/05/30 05:01:09;;;;;;;;;;;;;;;;;;4949627;28;20056;-60
2023/05/30 05:03:37;;;;;;;;;;;;;;;;;;4966866;28;20545;-60
2023/05/30 05:06:08;;;;;;;;;;;;;;;;;;4965976;28;19922;-60
2023/05/30 05:08:34;;;;;;;;;;;;;;;;;;4967660;28;20573;-60
2023/05/30 05:11:01;;;;;;;;;;;;;;;;;;4967460;28;19944;-61
2023/05/30 05:13:27;;;;;;;;;;;;;;;;;;4963619;28;19918;-61
2023/05/30 05:15:52;;;;;;;;;;;;;;;;;;4951745;28;20403;-61
2023/05/30 05:18:17;;;;;;;;;;;;;;;;;;4965193;28;19940;-60
2023/05/30 05:20:45;;;;;;;;;;;;;;;;;;4968648;28;19921;-61
2023/05/30 05:23:10;;;;;;;;;;;;;;;;;;4964965;28;20739;-61
2023/05/30 05:25:35;;;;;;;;;;;;;;;;;;4968066;28;19928;-61
2023/05/30 05:28:03;;;;;;;;;;;;;;;;;;4968528;28;19968;-61
2023/05/30 05:30:29;;;;;;;;;;;;;;;;;;4946040;28;20064;-60
2023/05/30 05:32:54;;;;;;;;;;;;;;;;;;4948072;28;19960;-60
2023/05/30 05:35:19;;;;;;;;;;;;;;;;;;4963466;28;19980;-61
2023/05/30 05:37:45;;;;;;;;;;;;;;;;;;4956484;28;19922;-60
2023/05/30 05:43:29;;;;;;;;;;;;;;;;;;4969761;28;19950;-60
2023/05/30 05:45:59;;;;;;;;;;;;;;;;;;4973468;28;19929;-60
2023/05/30 05:48:25;;;;;;;;;;;;;;;;;;4960775;28;20539;-60
2023/05/30 05:50:50;;;;;;;;;;;;;;;;;;4970136;28;19917;-60
2023/05/30 05:53:18;;;;;;;;;;;;;;;;;;4968755;28;19922;-59
2023/05/30 05:55:45;;;;;;;;;;;;;;;;;;4967942;28;19945;-60
2023/05/30 05:58:13;;;;;;;;;;;;;;;;;;4968376;28;19922;-60
2023/05/30 06:00:41;;;;;;;;;;;;;;;;;;4970346;28;20053;-59
2023/05/30 06:03:07;;;;;;;;;;;;;;;;;;4969110;28;20576;-60
2023/05/30 06:05:35;;;;;;;;;;;;;;;;;;4955869;28;19918;-60
2023/05/30 06:08:00;;;;;;;;;;;;;;;;;;4955030;28;20345;-62
2023/05/30 06:10:28;;;;;;;;;;;;;;;;;;4968967;28;19922;-60
2023/05/30 06:12:56;;;;;;;;;;;;;;;;;;4968133;28;20404;-60
2023/05/30 06:15:25;;;;;;;;;;;;;;;;;;4969820;28;19922;-60
2023/05/30 06:17:53;;;;;;;;;;;;;;;;;;4956866;28;19928;-60
2023/05/30 06:20:20;;;;;;;;;;;;;;;;;;4967899;28;19957;-60
2023/05/30 06:22:46;;;;;;;;;;;;;;;;;;4970711;28;20024;-60
2023/05/30 06:25:11;;;;;;;;;;;;;;;;;;4953092;28;20320;-60
2023/05/30 06:27:36;;;;;;;;;;;;;;;;;;4968427;28;19917;-59
2023/05/30 06:30:05;;;;;;;;;;;;;;;;;;4971586;28;19921;-60
2023/05/30 06:32:33;;;;;;;;;;;;;;;;;;4968239;28;20271;-60
2023/05/30 06:35:01;;;;;;;;;;;;;;;;;;4967899;28;20009;-60
2023/05/30 06:37:27;;;;;;;;;;;;;;;;;;4966391;28;20154;-60
2023/05/30 06:39:52;;;;;;;;;;;;;;;;;;4967809;28;19926;-61
2023/05/30 06:42:20;;;;;;;;;;;;;;;;;;4959178;28;19929;-60
2023/05/30 06:44:54;;;;;;;;;;;;;;;;;;4967360;28;20196;-60
2023/05/30 06:47:22;;;;;;;;;;;;;;;;;;4971255;28;19941;-60
2023/05/30 06:49:47;;;;;;;;;;;;;;;;;;4968039;28;20373;-60
2023/05/30 06:52:16;;;;;;;;;;;;;;;;;;4968616;28;19922;-60
2023/05/30 06:54:41;;;;;;;;;;;;;;;;;;4971298;28;20519;-60
2023/05/30 06:57:09;;;;;;;;;;;;;;;;;;4968286;28;21564;-60
2023/05/30 06:59:34;;;;;;;;;;;;;;;;;;4945335;28;19926;-60
2023/05/30 07:02:00;;;;;;;;;;;;;;;;;;4954760;28;21402;-60
2023/05/30 07:04:26;;;;;;;;;;;;;;;;;;4966505;28;19922;-59
2023/05/30 07:06:54;;;;;;;;;;;;;;;;;;4958870;28;20613;-60
2023/05/30 07:09:19;;;;;;;;;;;;;;;;;;4968298;28;19922;-59
2023/05/30 07:11:47;;;;;;;;;;;;;;;;;;4952220;28;19979;-60
2023/05/30 07:14:13;;;;;;;;;;;;;;;;;;4947581;28;19981;-60
2023/05/30 07:16:38;;;;;;;;;;;;;;;;;;4966936;28;20884;-59
2023/05/30 07:19:06;;;;;;;;;;;;;;;;;;4971407;28;19946;-59
2023/05/30 07:21:36;;;;;;;;;;;;;;;;;;4966850;28;19928;-60
2023/05/30 07:24:01;;;;;;;;;;;;;;;;;;4966221;28;19929;-60
2023/05/30 07:26:27;;;;;;;;;;;;;;;;;;4952051;28;20335;-60
2023/05/30 07:28:52;;;;;;;;;;;;;;;;;;4969175;28;20345;-59
2023/05/30 07:31:17;;;;;;;;;;;;;;;;;;4972425;28;20346;-60
2023/05/30 07:33:43;;;;;;;;;;;;;;;;;;4951628;28;20340;-61
2023/05/30 07:36:11;;;;;;;;;;;;;;;;;;4969876;28;19918;-60
2023/05/30 07:38:37;;;;;;;;;;;;;;;;;;4951886;28;20323;-60
2023/05/30 07:41:04;;;;;;;;;;;;;;;;;;4968392;28;19971;-60
2023/05/30 07:46:24;;;;;;;;;;;;;;;;;;4985024;28;20036;-60
2023/05/30 07:48:52;;;;;;;;;;;;;;;;;;4968357;28;20386;-60
2023/05/30 07:51:22;;;;;;;;;;;;;;;;;;4968713;28;20408;-61
2023/05/30 07:53:49;;;;;;;;;;;;;;;;;;4984609;28;19945;-62
2023/05/30 07:56:15;;;;;;;;;;;;;;;;;;4969165;28;19922;-61
2023/05/30 07:58:43;;;;;;;;;;;;;;;;;;4968489;28;19997;-61
2023/05/30 08:01:08;;;;;;;;;;;;;;;;;;4985485;28;20002;-61
2023/05/30 08:03:34;;;;;;;;;;;;;;;;;;4960058;28;19922;-61
2023/05/30 08:05:59;;;;;;;;;;;;;;;;;;4968488;28;19922;-61
2023/05/30 08:08:25;;;;;;;;;;;;;;;;;;4960069;28;19928;-61
2023/05/30 08:10:50;;;;;;;;;;;;;;;;;;4982288;28;20653;-61
2023/05/30 08:13:19;;;;;;;;;;;;;;;;;;4969262;28;19922;-61
2023/05/30 08:15:44;;;;;;;;;;;;;;;;;;4968546;28;20511;-61
2023/05/30 08:18:10;;;;;;;;;;;;;;;;;;4968616;28;19922;-61
2023/05/30 08:20:38;;;;;;;;;;;;;;;;;;4968794;28;20376;-61
2023/05/30 08:23:06;;;;;;;;;;;;;;;;;;4966669;28;19932;-61
2023/05/30 08:25:36;;;;;;;;;;;;;;;;;;4970999;28;19929;-61
2023/05/30 08:28:02;;;;;;;;;;;;;;;;;;4968191;28;19978;-61
2023/05/30 08:30:29;;;;;;;;;;;;;;;;;;4970786;28;19921;-61
2023/05/30 08:32:58;;;;;;;;;;;;;;;;;;4982600;28;21645;-61
2023/05/30 08:35:23;;;;;;;;;;;;;;;;;;4966742;28;20269;-62
2023/05/30 08:37:51;;;;;;;;;;;;;;;;;;4966955;28;20401;-61
2023/05/30 08:40:18;;;;;;;;;;;;;;;;;;4969678;28;19922;-61
2023/05/30 08:42:44;;;;;;;;;;;;;;;;;;4975649;28;20464;-61
2023/05/30 08:45:09;;;;;;;;;;;;;;;;;;4983777;28;19937;-61
2023/05/30 08:47:35;;;;;;;;;;;;;;;;;;4966626;28;20017;-60
2023/05/30 08:50:03;;;;;;;;;;;;;;;;;;4983002;28;19940;-61
2023/05/30 08:52:29;;;;;;;;;;;;;;;;;;4982235;28;19922;-61
2023/05/30 08:54:58;;;;;;;;;;;;;;;;;;4968923;28;19921;-61
2023/05/30 08:57:24;;;;;;;;;;;;;;;;;;4969532;28;20478;-61
2023/05/30 08:59:52;;;;;;;;;;;;;;;;;;4968832;28;20310;-61
2023/05/30 09:02:17;;;;;;;;;;;;;;;;;;4969804;28;19921;-60
2023/05/30 09:04:42;;;;;;;;;;;;;;;;;;4968339;28;20445;-61
2023/05/30 09:07:08;;;;;;;;;;;;;;;;;;4967733;28;20301;-61
2023/05/30 09:09:33;;;;;;;;;;;;;;;;;;4955692;28;19961;-61
2023/05/30 09:12:02;;;;;;;;;;;;;;;;;;4970052;28;19929;-61
2023/05/30 09:14:30;;;;;;;;;;;;;;;;;;4961823;28;19934;-61
2023/05/30 09:16:58;;;;;;;;;;;;;;;;;;4971069;28;19922;-60
2023/05/30 09:19:23;;;;;;;;;;;;;;;;;;4973974;28;19932;-63
2023/05/30 09:21:51;;;;;;;;;;;;;;;;;;4971516;28;19917;-61
2023/05/30 09:24:21;;;;;;;;;;;;;;;;;;4973552;28;19928;-62
2023/05/30 09:30:03;;;;;;;;;;;;;;;;;;4972388;28;20507;-60
2023/05/30 09:32:36;;;;;;;;;;;;;;;;;;4971486;28;19918;-62
2023/05/30 09:35:20;;;;;;;;;;;;;;;;;;4972681;28;19918;-62
2023/05/30 09:37:48;;;;;;;;;;;;;;;;;;4973425;28;21670;-60
2023/05/30 09:40:19;;;;;;;;;;;;;;;;;;4962817;28;19918;-61
2023/05/30 09:42:44;;;;;;;;;;;;;;;;;;4978053;28;19932;-61
2023/05/30 09:45:10;;;;;;;;;;;;;;;;;;4970789;28;19926;-61
2023/05/30 09:47:37;;;;;;;;;;;;;;;;;;4971989;28;20171;-62
2023/05/30 09:50:03;;;;;;;;;;;;;;;;;;4972430;28;19922;-61
2023/05/30 09:52:29;;;;;;;;;;;;;;;;;;4976705;28;19917;-61
2023/05/30 09:54:55;;;;;;;;;;;;;;;;;;4970677;28;19988;-62
2023/05/30 09:57:23;;;;;;;;;;;;;;;;;;4971126;28;19918;-62
2023/05/30 09:59:49;;;;;;;;;;;;;;;;;;4971080;28;20464;-61
2023/05/30 10:02:14;;;;;;;;;;;;;;;;;;4972091;28;19985;-61
2023/05/30 10:04:45;;;;;;;;;;;;;;;;;;4968407;28;19933;-62
2023/05/30 10:07:11;;;;;;;;;;;;;;;;;;4971502;28;19922;-61
2023/05/30 10:09:36;;;;;;;;;;;;;;;;;;4971801;28;19922;-61
2023/05/30 10:12:07;;;;;;;;;;;;;;;;;;4968882;28;19929;-60
2023/05/30 10:14:33;;;;;;;;;;;;;;;;;;4973087;28;19946;-59
2023/05/30 10:16:58;;;;;;;;;;;;;;;;;;4969210;28;19917;-60
2023/05/30 10:19:26;;;;;;;;;;;;;;;;;;4986430;28;20511;-60
2023/05/30 10:21:51;;;;;;;;;;;;;;;;;;4960734;28;19925;-60
2023/05/30 10:24:16;;;;;;;;;;;;;;;;;;4985913;28;20405;-60
2023/05/30 10:26:42;;;;;;;;;;;;;;;;;;4971531;28;19925;-60
2023/05/30 10:29:09;;;;;;;;;;;;;;;;;;4971084;28;20041;-60
2023/05/30 10:31:35;;;;;;;;;;;;;;;;;;4986777;28;19922;-60
2023/05/30 10:34:00;;;;;;;;;;;;;;;;;;4968817;28;20138;-59
2023/05/30 10:36:28;;;;;;;;;;;;;;;;;;4986632;28;19987;-60
2023/05/30 10:38:53;;;;;;;;;;;;;;;;;;4986131;28;19925;-59
2023/05/30 10:41:18;;;;;;;;;;;;;;;;;;4960942;28;19972;-60
2023/05/30 10:43:46;;;;;;;;;;;;;;;;;;4971765;28;19929;-60
2023/05/30 10:46:11;;;;;;;;;;;;;;;;;;4966650;28;20397;-61
2023/05/30 10:48:38;;;;;;;;;;;;;;;;;;4960545;28;19962;-61
2023/05/30 10:51:03;;;;;;;;;;;;;;;;;;4969132;28;20473;-59
2023/05/30 10:53:29;;;;;;;;;;;;;;;;;;4969592;28;19971;-60
2023/05/30 10:55:57;;;;;;;;;;;;;;;;;;4968676;28;19922;-60
2023/05/30 10:58:25;;;;;;;;;;;;;;;;;;4970931;28;19922;-59
2023/05/30 11:00:51;;;;;;;;;;;;;;;;;;4969028;28;19953;-60
2023/05/30 11:03:16;;;;;;;;;;;;;;;;;;4967630;28;19925;-60
2023/05/30 11:05:41;;;;;;;;;;;;;;;;;;4959937;28;20210;-61
2023/05/30 11:08:06;;;;;;;;;;;;;;;;;;4959689;28;19921;-60
2023/05/30 11:10:35;;;;;;;;;;;;;;;;;;4967144;28;19972;-60
2023/05/30 11:13:06;;;;;;;;;;;;;;;;;;4968785;28;19917;-60
2023/05/30 11:15:31;;;;;;;;;;;;;;;;;;4959930;28;19922;-60
2023/05/30 11:17:59;;;;;;;;;;;;;;;;;;4950722;28;19979;-60
2023/05/30 11:20:27;;;;;;;;;;;;;;;;;;4951500;28;19925;-61
2023/05/30 11:22:55;;;;;;;;;;;;;;;;;;4970008;28;20518;-60
2023/05/30 11:25:23;;;;;;;;;;;;;;;;;;4966147;28;20503;-61
2023/05/30 11:27:48;;;;;;;;;;;;;;;;;;4966570;28;20322;-60
2023/05/30 11:30:13;;;;;;;;;;;;;;;;;;4967414;28;19922;-60
2023/05/30 11:32:42;;;;;;;;;;;;;;;;;;4965556;28;19924;-60
2023/05/30 11:35:10;;;;;;;;;;;;;;;;;;4965779;28;20487;-60
2023/05/30 11:37:37;;;;;;;;;;;;;;;;;;4966299;28;19921;-60
2023/05/30 11:40:12;;;;;;;;;;;;;;;;;;4953485;28;19929;-60
2023/05/30 11:42:40;;;;;;;;;;;;;;;;;;4955168;28;19929;-60
2023/05/30 11:45:06;;;;;;;;;;;;;;;;;;4969144;28;20043;-62
2023/05/30 11:47:32;;;;;;;;;;;;;;;;;;4972791;28;19918;-60
2023/05/30 11:49:59;;;;;;;;;;;;;;;;;;4970907;28;20346;-60
2023/05/30 11:52:25;;;;;;;;;;;;;;;;;;4966932;28;19929;-61
2023/05/30 11:58:07;;;;;;;;;;;;;;;;;;4970176;28;20521;-60
2023/05/30 12:00:32;;;;;;;;;;;;;;;;;;4982883;28;19922;-60
2023/05/30 12:03:01;;;;;;;;;;;;;;;;;;4960413;28;20276;-59
2023/05/30 12:05:26;;;;;;;;;;;;;;;;;;4976427;28;19933;-59
2023/05/30 12:07:52;;;;;;;;;;;;;;;;;;4967375;28;19928;-59
2023/05/30 12:10:18;;;;;;;;;;;;;;;;;;4971595;28;19921;-60
2023/05/30 12:12:46;;;;;;;;;;;;;;;;;;4968946;28;19929;-60
2023/05/30 12:15:14;;;;;;;;;;;;;;;;;;4970486;28;19921;-59
2023/05/30 12:17:41;;;;;;;;;;;;;;;;;;4983001;28;19953;-59
2023/05/30 12:20:10;;;;;;;;;;;;;;;;;;4985065;28;19921;-60
2023/05/30 12:22:38;;;;;;;;;;;;;;;;;;4982548;28;20294;-59
2023/05/30 12:25:03;;;;;;;;;;;;;;;;;;4964639;28;20007;-60
2023/05/30 12:27:31;;;;;;;;;;;;;;;;;;4959686;28;19924;-60
2023/05/30 12:30:00;;;;;;;;;;;;;;;;;;4984248;28;19929;-60
2023/05/30 12:32:28;;;;;;;;;;;;;;;;;;4983414;28;20274;-60
2023/05/30 12:34:56;;;;;;;;;;;;;;;;;;4983947;28;19922;-60
2023/05/30 12:37:25;;;;;;;;;;;;;;;;;;4982410;28;19918;-61
2023/05/30 12:39:50;;;;;;;;;;;;;;;;;;4968679;28;19960;-60
2023/05/30 12:42:15;;;;;;;;;;;;;;;;;;4968333;28;19933;-60
2023/05/30 12:44:43;;;;;;;;;;;;;;;;;;4966378;28;21458;-61
2023/05/30 12:47:10;;;;;;;;;;;;;;;;;;4965444;28;20345;-60
2023/05/30 12:49:41;;;;;;;;;;;;;;;;;;4957569;28;20395;-61
2023/05/30 12:52:09;;;;;;;;;;;;;;;;;;4967017;28;19936;-60
2023/05/30 12:54:35;;;;;;;;;;;;;;;;;;4962876;28;20357;-60
2023/05/30 12:57:01;;;;;;;;;;;;;;;;;;4957924;28;20140;-60
2023/05/30 12:59:27;;;;;;;;;;;;;;;;;;4966093;28;19973;-60
2023/05/30 13:01:52;;;;;;;;;;;;;;;;;;4959097;28;20073;-60
2023/05/30 13:04:20;;;;;;;;;;;;;;;;;;4965840;28;20446;-60
2023/05/30 13:06:51;;;;;;;;;;;;;;;;;;4967030;28;19917;-61
2023/05/30 13:09:16;;;;;;;;;;;;;;;;;;4950125;28;20344;-60
2023/05/30 13:11:44;;;;;;;;;;;;;;;;;;4967445;28;20202;-60
2023/05/30 13:14:12;;;;;;;;;;;;;;;;;;4967407;28;20115;-62
2023/05/30 13:16:40;;;;;;;;;;;;;;;;;;4965264;28;19922;-61
2023/05/30 13:19:05;;;;;;;;;;;;;;;;;;4953650;28;19968;-62
2023/05/30 13:21:30;;;;;;;;;;;;;;;;;;4949434;28;20733;-61
2023/05/30 13:23:56;;;;;;;;;;;;;;;;;;4950458;28;19922;-60
2023/05/30 13:26:25;;;;;;;;;;;;;;;;;;4966099;28;19922;-60
2023/05/30 13:28:53;;;;;;;;;;;;;;;;;;4967570;28;19940;-60
2023/05/30 13:31:18;;;;;;;;;;;;;;;;;;4966121;28;19921;-60
2023/05/30 13:33:49;;;;;;;;;;;;;;;;;;4966278;28;20463;-60
2023/05/30 13:38:49;;;;;;;;;;;;;;;;;;5138045;23;19939;-61
2023/05/30 13:41:14;;;;;;;;;;;;;;;;;;5041173;28;19921;-60
2023/05/30 13:43:40;;;;;;;;;;;;;;;;;;5018732;28;19925;-60
2023/05/30 13:46:05;;;;;;;;;;;;;;;;;;5014935;28;19924;-60
2023/05/30 13:48:33;;;;;;;;;;;;;;;;;;5014584;28;19943;-60
2023/05/30 13:51:01;;;;;;;;;;;;;;;;;;5014860;28;19956;-60
2023/05/30 13:53:27;;;;;;;;;;;;;;;;;;5013573;28;20431;-60
2023/05/30 13:55:52;;;;;;;;;;;;;;;;;;5000193;28;19920;-60
2023/05/30 13:58:20;;;;;;;;;;;;;;;;;;5034863;28;19990;-60
2023/05/30 14:00:48;;;;;;;;;;;;;;;;;;5003067;28;19926;-60
2023/05/30 14:03:13;;;;;;;;;;;;;;;;;;5036696;28;19921;-59
2023/05/30 14:05:39;;;;;;;;;;;;;;;;;;5038484;28;19917;-61
2023/05/30 14:08:04;;;;;;;;;;;;;;;;;;5018049;28;19979;-60
2023/05/30 14:10:32;;;;;;;;;;;;;;;;;;4991572;28;20189;-60
2023/05/30 14:12:58;;;;;;;;;;;;;;;;;;5019373;28;19920;-60
2023/05/30 14:15:28;;;;;;;;;;;;;;;;;;5016082;28;20032;-61
2023/05/30 14:17:54;;;;;;;;;;;;;;;;;;5018092;28;20822;-60
2023/05/30 14:20:19;;;;;;;;;;;;;;;;;;5004209;28;19921;-60
2023/05/30 14:22:47;;;;;;;;;;;;;;;;;;5016461;28;19921;-60
2023/05/30 14:25:15;;;;;;;;;;;;;;;;;;5001597;28;19925;-60
2023/05/30 14:27:42;;;;;;;;;;;;;;;;;;5017375;28;19936;-59
2023/05/30 14:30:12;;;;;;;;;;;;;;;;;;5001088;28;19921;-59
2023/05/30 14:32:38;;;;;;;;;;;;;;;;;;5016865;28;20456;-59
2023/05/30 14:35:07;;;;;;;;;;;;;;;;;;5034379;28;19951;-59
2023/05/30 14:37:34;;;;;;;;;;;;;;;;;;5009034;28;19920;-61
2023/05/30 14:39:59;;;;;;;;;;;;;;;;;;5000368;28;19925;-60
2023/05/30 14:42:25;;;;;;;;;;;;;;;;;;5000998;28;19917;-60
2023/05/30 14:44:51;;;;;;;;;;;;;;;;;;5002571;28;20016;-59
2023/05/30 14:47:20;;;;;;;;;;;;;;;;;;5019256;28;20201;-59
2023/05/30 14:49:48;;;;;;;;;;;;;;;;;;4984049;28;20018;-59
2023/05/30 14:52:13;;;;;;;;;;;;;;;;;;5016718;28;19923;-61
2023/05/30 14:54:41;;;;;;;;;;;;;;;;;;5017016;28;19921;-61
2023/05/30 14:57:06;;;;;;;;;;;;;;;;;;5000629;28;19968;-60
2023/05/30 14:59:32;;;;;;;;;;;;;;;;;;5017961;28;20004;-61
2023/05/30 15:01:58;;;;;;;;;;;;;;;;;;5019414;28;19921;-61
2023/05/30 15:04:23;;;;;;;;;;;;;;;;;;5019607;28;19920;-62
2023/05/30 15:06:51;;;;;;;;;;;;;;;;;;4984822;28;21397;-61
2023/05/30 15:09:18;;;;;;;;;;;;;;;;;;4993368;28;20079;-61
2023/05/30 15:11:43;;;;;;;;;;;;;;;;;;4999837;28;20716;-61
2023/05/30 15:14:11;;;;;;;;;;;;;;;;;;4997927;28;19921;-61
2023/05/30 15:16:37;;;;;;;;;;;;;;;;;;5020822;28;20038;-61
2023/05/30 15:19:03;;;;;;;;;;;;;;;;;;4998785;28;19920;-60
2023/05/30 15:21:29;;;;;;;;;;;;;;;;;;5020028;28;19920;-60
2023/05/30 15:23:54;;;;;;;;;;;;;;;;;;5015835;28;20387;-60
2023/05/30 15:26:23;;;;;;;;;;;;;;;;;;5019860;28;20031;-61
2023/05/30 15:28:58;;;;;;;;;;;;;;;;;;5019956;28;19983;-60
2023/05/30 15:31:23;;;;;;;;;;;;;;;;;;5019085;28;20065;-61
2023/05/30 15:33:51;;;;;;;;;;;;;;;;;;4999654;28;20322;-61
2023/05/30 15:36:16;;;;;;;;;;;;;;;;;;5015664;28;20014;-60
2023/05/30 15:38:41;;;;;;;;;;;;;;;;;;5007044;28;19936;-61
2023/05/30 15:41:09;;;;;;;;;;;;;;;;;;5015959;28;19920;-61
2023/05/30 15:43:34;;;;;;;;;;;;;;;;;;5001388;28;19970;-61
2023/05/30 15:46:00;;;;;;;;;;;;;;;;;;5034564;28;20367;-61
2023/05/30 15:48:28;;;;;;;;;;;;;;;;;;5018282;28;19924;-61
2023/05/30 15:50:59;;;;;;;;;;;;;;;;;;5017485;28;19924;-61
2023/05/30 15:53:24;;;;;;;;;;;;;;;;;;5017435;28;19970;-60
2023/05/30 15:55:50;;;;;;;;;;;;;;;;;;5016495;28;20007;-60
2023/05/30 15:58:18;;;;;;;;;;;;;;;;;;5016331;28;19920;-61
2023/05/30 16:00:44;;;;;;;;;;;;;;;;;;5017606;28;19975;-59
2023/05/30 16:03:10;;;;;;;;;;;;;;;;;;5034443;28;19961;-59
2023/05/30 16:05:35;;;;;;;;;;;;;;;;;;5018441;28;20224;-59
2023/05/30 16:08:01;;;;;;;;;;;;;;;;;;4999185;28;20044;-60
2023/05/30 16:10:29;;;;;;;;;;;;;;;;;;5019532;28;20028;-61
2023/05/30 16:12:54;;;;;;;;;;;;;;;;;;5033303;28;19921;-62
2023/05/30 16:15:19;;;;;;;;;;;;;;;;;;5017925;28;19916;-61
2023/05/30 16:17:45;;;;;;;;;;;;;;;;;;5016652;28;21420;-61
2023/05/30 16:20:13;;;;;;;;;;;;;;;;;;5034923;28;19928;-61
2023/05/30 16:22:41;;;;;;;;;;;;;;;;;;5014568;28;19955;-60
2023/05/30 16:25:09;;;;;;;;;;;;;;;;;;5035668;28;20249;-60
2023/05/30 16:27:35;;;;;;;;;;;;;;;;;;5035007;28;19930;-61
2023/05/30 16:30:03;;;;;;;;;;;;;;;;;;5017186;28;20221;-61
2023/05/30 16:32:28;;;;;;;;;;;;;;;;;;5036625;28;19920;-60
2023/05/30 16:34:56;;;;;;;;;;;;;;;;;;4999752;28;20038;-61
2023/05/30 16:37:21;;;;;;;;;;;;;;;;;;5033685;28;20411;-60
2023/05/30 16:39:46;;;;;;;;;;;;;;;;;;4996937;28;19932;-60
2023/05/30 16:42:12;;;;;;;;;;;;;;;;;;5014986;28;19921;-61
2023/05/30 16:44:40;;;;;;;;;;;;;;;;;;5034288;28;19929;-60
2023/05/30 16:47:06;;;;;;;;;;;;;;;;;;5014279;28;20363;-60
2023/05/30 16:49:33;;;;;;;;;;;;;;;;;;5001190;28;20044;-60
2023/05/30 16:52:02;;;;;;;;;;;;;;;;;;5001387;28;20856;-61
2023/05/30 16:54:27;;;;;;;;;;;;;;;;;;5033672;28;19921;-61
2023/05/30 16:56:52;;;;;;;;;;;;;;;;;;5035429;28;19931;-61
2023/05/30 16:59:17;;;;;;;;;;;;;;;;;;5001266;28;19940;-61
2023/05/30 17:01:45;;;;;;;;;;;;;;;;;;5032899;28;19923;-61
2023/05/30 17:04:10;;;;;;;;;;;;;;;;;;5015318;28;20185;-60